Flight Track Log - Related Links

Times and Time Zones

All times are in EDT time to prevent confusion due to time zone crossing. See the CHH7668 flight status page for this flight to view local times or setup timezone preferences in your user account.

Time Position Orientation Groundspeed Altitude Reporting Facility
EDT Latitude Longitude Course Direction KTS MPH feet Rate Location/Type
Sat 11:19:00 AM 30.5410 106.9915 20° North  Level Estimated
Sat 11:20:00 AM 30.6323 107.0309 20° North  Level Estimated
Sat 11:21:00 AM 30.7235 107.0703 20° North  Level Estimated
Sat 11:22:00 AM 30.8147 107.1097 20° North  Level Estimated
Sat 11:23:00 AM 30.9059 107.1492 20° North  Level Estimated
Sat 11:24:00 AM 30.9971 107.1889 20° North  Level Estimated
Sat 11:25:00 AM 31.0883 107.2286 20° North  Level Estimated
Sat 11:26:00 AM 31.1794 107.2683 20° North  Level Estimated
Sat 11:27:00 AM 31.2706 107.3082 20° North  Level Estimated
Sat 11:28:00 AM 31.3617 107.3481 21° North  Level Estimated
Sat 11:29:00 AM 31.4529 107.3881 21° North  Level Estimated
Sat 11:30:00 AM 31.5440 107.4281 21° North  Level Estimated
Sat 11:31:00 AM 31.6351 107.4683 21° North  Level Estimated
Sat 11:32:00 AM 31.7262 107.5085 21° North  Level Estimated
Sat 11:33:00 AM 31.8172 107.5488 21° North  Level Estimated
Sat 11:34:00 AM 31.9083 107.5892 21° North  Level Estimated
Sat 11:35:00 AM 31.9994 107.6297 21° North  Level Estimated
Sat 11:36:00 AM 32.0904 107.6702 21° North  Level Estimated
Sat 11:37:00 AM 32.1814 107.7109 21° North  Level Estimated
Sat 11:38:00 AM 32.2724 107.7516 21° North  Level Estimated
Sat 11:39:00 AM 32.3634 107.7924 21° North  Level Estimated
Sat 11:40:00 AM 32.4544 107.8332 21° North  Level Estimated
Sat 11:41:00 AM 32.5454 107.8742 21° North  Level Estimated
Sat 11:42:00 AM 32.6364 107.9152 21° North  Level Estimated
Sat 11:43:00 AM 32.7273 107.9564 21° North  Level Estimated
Sat 11:44:00 AM 32.8182 107.9976 21° North  Level Estimated
Sat 11:45:00 AM 32.9092 108.0389 21° North  Level Estimated
Sat 11:46:00 AM 33.0001 108.0802 21° North  Level Estimated
Sat 11:47:00 AM 33.0910 108.1217 21° North  Level Estimated
Sat 11:48:00 AM 33.1818 108.1633 21° North  Level Estimated
Sat 11:49:00 AM 33.2727 108.2049 21° North  Level Estimated
Sat 11:50:00 AM 33.3636 108.2466 21° North  Level Estimated
Sat 11:51:00 AM 33.4544 108.2884 21° North  Level Estimated
Sat 11:52:00 AM 33.5452 108.3303 21° North  Level Estimated
Sat 11:53:00 AM 33.6360 108.3723 21° North  Level Estimated
Sat 11:54:00 AM 33.7268 108.4144 21° North  Level Estimated
Sat 11:55:00 AM 33.8176 108.4565 21° North  Level Estimated
Sat 11:56:00 AM 33.9084 108.4988 21° North  Level Estimated
Sat 11:57:00 AM 33.9991 108.5411 21° North  Level Estimated
Sat 11:58:00 AM 34.0899 108.5836 21° North  Level Estimated
Sat 11:59:00 AM 34.1806 108.6261 21° North  Level Estimated
Sat 12:00:00 PM 34.2713 108.6687 21° North  Level Estimated
Sat 12:01:00 PM 34.3620 108.7114 21° North  Level Estimated
Sat 12:02:00 PM 34.4471 108.7516 21° North  Level Estimated
Sat 12:03:00 PM 34.4471 108.7516 North  Level Estimated
Sat 12:04:00 PM 34.4471 108.7516 North  Level Estimated
Sat 12:05:00 PM 34.4471 108.7516 North  Level Estimated
Sat 12:06:00 PM 34.4471 108.7516 North  Level Estimated
Sat 12:07:00 PM 34.4471 108.7516 North  Level Estimated
Sat 12:08:00 PM 34.4471 108.7516 North  Level Estimated
Sat 12:09:00 PM 34.4471 108.7516 North  Level Estimated
Sat 12:10:00 PM 34.4471 108.7516 North  Level Estimated
Sat 12:11:00 PM 34.4471 108.7516 North  Level Estimated
Sat 12:12:00 PM 34.4471 108.7516 North  Level Estimated
Sat 12:13:00 PM 34.4471 108.7516 North  Level Estimated
Sat 12:14:00 PM 34.4471 108.7516 North  Level Estimated
Sat 12:15:00 PM 34.4471 108.7516 North  Level Estimated
Sat 12:16:00 PM 34.4471 108.7516 North  Level Estimated

Login

Don't have an account? Register now (free) for customized features, flight alerts, and more!